sensor_id;sensor_type;location;lat;lon;timestamp;temperature;humidity
22966;DHT22;11649;48.090;9.754;2023-08-17T00:00:15;20.30;99.90
22966;DHT22;11649;48.090;9.754;2023-08-17T00:02:44;20.40;99.90
22966;DHT22;11649;48.090;9.754;2023-08-17T00:05:11;20.50;99.90
22966;DHT22;11649;48.090;9.754;2023-08-17T00:07:38;20.40;99.90
22966;DHT22;11649;48.090;9.754;2023-08-17T00:10:05;20.40;99.90
22966;DHT22;11649;48.090;9.754;2023-08-17T00:12:32;20.20;99.90
22966;DHT22;11649;48.090;9.754;2023-08-17T00:14:59;20.20;99.90
22966;DHT22;11649;48.090;9.754;2023-08-17T00:17:25;20.30;99.90
22966;DHT22;11649;48.090;9.754;2023-08-17T00:19:52;20.30;99.90
22966;DHT22;11649;48.090;9.754;2023-08-17T00:22:19;20.40;99.90
22966;DHT22;11649;48.090;9.754;2023-08-17T00:24:46;20.30;99.90
22966;DHT22;11649;48.090;9.754;2023-08-17T00:27:13;20.30;99.90
22966;DHT22;11649;48.090;9.754;2023-08-17T00:29:39;20.10;99.90
22966;DHT22;11649;48.090;9.754;2023-08-17T00:32:06;20.10;99.90
22966;DHT22;11649;48.090;9.754;2023-08-17T00:34:33;20.00;99.90
22966;DHT22;11649;48.090;9.754;2023-08-17T00:37:00;19.90;99.90
22966;DHT22;11649;48.090;9.754;2023-08-17T00:39:27;19.80;99.90
22966;DHT22;11649;48.090;9.754;2023-08-17T00:41:54;19.80;99.90
22966;DHT22;11649;48.090;9.754;2023-08-17T00:44:21;19.90;99.90
22966;DHT22;11649;48.090;9.754;2023-08-17T00:46:47;20.00;99.90
22966;DHT22;11649;48.090;9.754;2023-08-17T00:49:14;20.10;99.90
22966;DHT22;11649;48.090;9.754;2023-08-17T00:51:42;20.20;99.90
22966;DHT22;11649;48.090;9.754;2023-08-17T00:54:09;20.20;99.90
22966;DHT22;11649;48.090;9.754;2023-08-17T00:56:37;20.00;99.90
22966;DHT22;11649;48.090;9.754;2023-08-17T00:59:04;19.80;99.90
22966;DHT22;11649;48.090;9.754;2023-08-17T01:01:31;19.90;99.90
22966;DHT22;11649;48.090;9.754;2023-08-17T01:03:57;19.80;99.90
22966;DHT22;11649;48.090;9.754;2023-08-17T01:06:24;19.60;99.90
22966;DHT22;11649;48.090;9.754;2023-08-17T01:09:10;19.50;99.90
22966;DHT22;11649;48.090;9.754;2023-08-17T01:11:49;19.40;99.90
22966;DHT22;11649;48.090;9.754;2023-08-17T01:16:57;19.40;99.90
22966;DHT22;11649;48.090;9.754;2023-08-17T01:19:28;19.50;99.90
22966;DHT22;11649;48.090;9.754;2023-08-17T01:22:06;19.60;99.90
22966;DHT22;11649;48.090;9.754;2023-08-17T01:24:34;19.40;99.90
22966;DHT22;11649;48.090;9.754;2023-08-17T01:27:01;19.40;99.90
22966;DHT22;11649;48.090;9.754;2023-08-17T01:29:28;19.40;99.90
22966;DHT22;11649;48.090;9.754;2023-08-17T01:34:49;19.40;99.90
22966;DHT22;11649;48.090;9.754;2023-08-17T01:37:19;19.30;99.90
22966;DHT22;11649;48.090;9.754;2023-08-17T01:39:50;19.30;99.90
22966;DHT22;11649;48.090;9.754;2023-08-17T01:42:19;19.30;99.90
22966;DHT22;11649;48.090;9.754;2023-08-17T01:44:46;19.30;99.90
22966;DHT22;11649;48.090;9.754;2023-08-17T01:47:13;19.30;99.90
22966;DHT22;11649;48.090;9.754;2023-08-17T01:49:40;19.30;99.90
22966;DHT22;11649;48.090;9.754;2023-08-17T01:52:07;19.30;99.90
22966;DHT22;11649;48.090;9.754;2023-08-17T01:54:34;19.20;99.90
22966;DHT22;11649;48.090;9.754;2023-08-17T01:57:00;19.20;99.90
22966;DHT22;11649;48.090;9.754;2023-08-17T01:59:27;19.20;99.90
22966;DHT22;11649;48.090;9.754;2023-08-17T02:01:54;19.30;99.90
22966;DHT22;11649;48.090;9.754;2023-08-17T02:04:21;19.30;99.90
22966;DHT22;11649;48.090;9.754;2023-08-17T02:06:47;19.20;99.90
22966;DHT22;11649;48.090;9.754;2023-08-17T02:09:14;19.10;99.90
22966;DHT22;11649;48.090;9.754;2023-08-17T02:11:41;19.10;99.90
22966;DHT22;11649;48.090;9.754;2023-08-17T02:14:08;19.10;99.90
22966;DHT22;11649;48.090;9.754;2023-08-17T02:16:34;19.20;99.90
22966;DHT22;11649;48.090;9.754;2023-08-17T02:19:01;19.10;99.90
22966;DHT22;11649;48.090;9.754;2023-08-17T02:21:28;19.00;99.90
22966;DHT22;11649;48.090;9.754;2023-08-17T02:23:55;19.00;99.90
22966;DHT22;11649;48.090;9.754;2023-08-17T02:26:22;19.10;99.90
22966;DHT22;11649;48.090;9.754;2023-08-17T02:28:48;19.10;99.90
22966;DHT22;11649;48.090;9.754;2023-08-17T02:31:15;19.10;99.90
22966;DHT22;11649;48.090;9.754;2023-08-17T02:33:46;19.00;99.90
22966;DHT22;11649;48.090;9.754;2023-08-17T02:36:13;18.80;99.90
22966;DHT22;11649;48.090;9.754;2023-08-17T02:38:40;18.70;99.90
22966;DHT22;11649;48.090;9.754;2023-08-17T02:41:06;18.60;99.90
22966;DHT22;11649;48.090;9.754;2023-08-17T02:43:33;18.50;99.90
22966;DHT22;11649;48.090;9.754;2023-08-17T02:46:00;18.40;99.90
22966;DHT22;11649;48.090;9.754;2023-08-17T02:48:27;18.40;99.90
22966;DHT22;11649;48.090;9.754;2023-08-17T02:50:56;18.40;99.90
22966;DHT22;11649;48.090;9.754;2023-08-17T02:53:23;18.50;99.90
22966;DHT22;11649;48.090;9.754;2023-08-17T02:55:50;18.50;99.90
22966;DHT22;11649;48.090;9.754;2023-08-17T02:58:16;18.40;99.90
22966;DHT22;11649;48.090;9.754;2023-08-17T03:00:43;18.40;99.90
22966;DHT22;11649;48.090;9.754;2023-08-17T03:03:10;18.40;99.90
22966;DHT22;11649;48.090;9.754;2023-08-17T03:05:37;18.40;99.90
22966;DHT22;11649;48.090;9.754;2023-08-17T03:08:04;18.20;99.90
22966;DHT22;11649;48.090;9.754;2023-08-17T03:10:31;18.10;99.90
22966;DHT22;11649;48.090;9.754;2023-08-17T03:12:58;18.10;99.90
22966;DHT22;11649;48.090;9.754;2023-08-17T03:15:25;18.00;99.90
22966;DHT22;11649;48.090;9.754;2023-08-17T03:17:52;17.90;99.90
22966;DHT22;11649;48.090;9.754;2023-08-17T03:20:19;17.90;99.90
22966;DHT22;11649;48.090;9.754;2023-08-17T03:22:45;18.00;99.90
22966;DHT22;11649;48.090;9.754;2023-08-17T03:25:12;18.10;99.90
22966;DHT22;11649;48.090;9.754;2023-08-17T03:27:39;18.10;99.90
22966;DHT22;11649;48.090;9.754;2023-08-17T03:30:06;18.20;99.90
22966;DHT22;11649;48.090;9.754;2023-08-17T03:32:33;18.10;99.90
22966;DHT22;11649;48.090;9.754;2023-08-17T03:35:00;18.10;99.90
22966;DHT22;11649;48.090;9.754;2023-08-17T03:37:26;18.00;99.90
22966;DHT22;11649;48.090;9.754;2023-08-17T03:39:54;17.80;99.90
22966;DHT22;11649;48.090;9.754;2023-08-17T03:42:21;17.80;99.90
22966;DHT22;11649;48.090;9.754;2023-08-17T03:44:48;17.80;99.90
22966;DHT22;11649;48.090;9.754;2023-08-17T03:47:14;17.90;99.90
22966;DHT22;11649;48.090;9.754;2023-08-17T03:49:41;17.90;99.90
22966;DHT22;11649;48.090;9.754;2023-08-17T03:52:08;17.80;99.90
22966;DHT22;11649;48.090;9.754;2023-08-17T03:54:35;17.70;99.90
22966;DHT22;11649;48.090;9.754;2023-08-17T03:57:02;17.60;99.90
22966;DHT22;11649;48.090;9.754;2023-08-17T03:59:29;17.60;99.90
22966;DHT22;11649;48.090;9.754;2023-08-17T04:01:56;17.60;99.90
22966;DHT22;11649;48.090;9.754;2023-08-17T04:04:23;17.60;99.90
22966;DHT22;11649;48.090;9.754;2023-08-17T04:06:54;17.60;99.90
22966;DHT22;11649;48.090;9.754;2023-08-17T04:09:20;17.80;99.90
22966;DHT22;11649;48.090;9.754;2023-08-17T04:11:47;17.80;99.90
22966;DHT22;11649;48.090;9.754;2023-08-17T04:14:14;17.80;99.90
22966;DHT22;11649;48.090;9.754;2023-08-17T04:16:42;17.50;99.90
22966;DHT22;11649;48.090;9.754;2023-08-17T04:19:09;17.40;99.90
22966;DHT22;11649;48.090;9.754;2023-08-17T04:21:36;17.40;99.90
22966;DHT22;11649;48.090;9.754;2023-08-17T04:24:03;17.40;99.90
22966;DHT22;11649;48.090;9.754;2023-08-17T04:26:30;17.40;99.90
22966;DHT22;11649;48.090;9.754;2023-08-17T04:28:57;17.30;99.90
22966;DHT22;11649;48.090;9.754;2023-08-17T04:31:23;17.40;99.90
22966;DHT22;11649;48.090;9.754;2023-08-17T04:33:51;17.40;99.90
22966;DHT22;11649;48.090;9.754;2023-08-17T04:36:18;17.40;99.90
22966;DHT22;11649;48.090;9.754;2023-08-17T04:38:45;17.40;99.90
22966;DHT22;11649;48.090;9.754;2023-08-17T04:41:12;17.20;99.90
22966;DHT22;11649;48.090;9.754;2023-08-17T04:43:38;17.20;99.90
22966;DHT22;11649;48.090;9.754;2023-08-17T04:46:05;17.40;99.90
22966;DHT22;11649;48.090;9.754;2023-08-17T04:48:32;17.40;99.90
22966;DHT22;11649;48.090;9.754;2023-08-17T04:50:59;17.30;99.90
22966;DHT22;11649;48.090;9.754;2023-08-17T04:53:26;17.20;99.90
22966;DHT22;11649;48.090;9.754;2023-08-17T04:55:52;17.20;99.90
22966;DHT22;11649;48.090;9.754;2023-08-17T04:58:19;17.10;99.90
22966;DHT22;11649;48.090;9.754;2023-08-17T05:00:46;17.20;99.90
22966;DHT22;11649;48.090;9.754;2023-08-17T05:03:13;17.30;99.90
22966;DHT22;11649;48.090;9.754;2023-08-17T05:05:58;17.40;99.90
22966;DHT22;11649;48.090;9.754;2023-08-17T05:08:25;17.50;99.90
22966;DHT22;11649;48.090;9.754;2023-08-17T05:10:52;17.50;99.90
22966;DHT22;11649;48.090;9.754;2023-08-17T05:13:19;17.60;99.90
22966;DHT22;11649;48.090;9.754;2023-08-17T05:15:46;17.60;99.90
22966;DHT22;11649;48.090;9.754;2023-08-17T05:18:12;17.60;99.90
22966;DHT22;11649;48.090;9.754;2023-08-17T05:20:39;17.70;99.90
22966;DHT22;11649;48.090;9.754;2023-08-17T05:23:06;17.80;99.90
22966;DHT22;11649;48.090;9.754;2023-08-17T05:25:33;17.80;99.90
22966;DHT22;11649;48.090;9.754;2023-08-17T05:28:00;17.90;99.90
22966;DHT22;11649;48.090;9.754;2023-08-17T05:30:29;17.90;99.90
22966;DHT22;11649;48.090;9.754;2023-08-17T05:32:56;18.00;99.90
22966;DHT22;11649;48.090;9.754;2023-08-17T05:35:23;18.10;99.90
22966;DHT22;11649;48.090;9.754;2023-08-17T05:37:50;18.20;99.90
22966;DHT22;11649;48.090;9.754;2023-08-17T05:40:17;18.30;99.90
22966;DHT22;11649;48.090;9.754;2023-08-17T05:42:44;18.20;99.90
22966;DHT22;11649;48.090;9.754;2023-08-17T05:45:11;18.30;99.90
22966;DHT22;11649;48.090;9.754;2023-08-17T05:47:37;18.40;99.90
22966;DHT22;11649;48.090;9.754;2023-08-17T05:50:05;18.40;99.90
22966;DHT22;11649;48.090;9.754;2023-08-17T05:52:32;18.40;99.90
22966;DHT22;11649;48.090;9.754;2023-08-17T05:54:59;18.30;99.90
22966;DHT22;11649;48.090;9.754;2023-08-17T05:57:25;18.30;99.90
22966;DHT22;11649;48.090;9.754;2023-08-17T05:59:53;18.30;99.90
22966;DHT22;11649;48.090;9.754;2023-08-17T06:02:20;18.30;99.90
22966;DHT22;11649;48.090;9.754;2023-08-17T06:04:47;18.30;99.90
22966;DHT22;11649;48.090;9.754;2023-08-17T06:07:14;18.50;99.90
22966;DHT22;11649;48.090;9.754;2023-08-17T06:09:41;18.60;99.90
22966;DHT22;11649;48.090;9.754;2023-08-17T06:12:08;18.80;99.90
22966;DHT22;11649;48.090;9.754;2023-08-17T06:14:35;19.00;99.90
22966;DHT22;11649;48.090;9.754;2023-08-17T06:17:01;19.10;99.90
22966;DHT22;11649;48.090;9.754;2023-08-17T06:19:28;19.30;99.90
22966;DHT22;11649;48.090;9.754;2023-08-17T06:21:55;19.50;99.90
22966;DHT22;11649;48.090;9.754;2023-08-17T06:24:22;19.70;99.90
22966;DHT22;11649;48.090;9.754;2023-08-17T06:26:49;19.80;99.90
22966;DHT22;11649;48.090;9.754;2023-08-17T06:29:15;19.80;99.90
22966;DHT22;11649;48.090;9.754;2023-08-17T06:31:44;19.80;99.90
22966;DHT22;11649;48.090;9.754;2023-08-17T06:34:11;19.90;99.90
22966;DHT22;11649;48.090;9.754;2023-08-17T06:36:39;20.00;99.90
22966;DHT22;11649;48.090;9.754;2023-08-17T06:39:06;20.10;99.90
22966;DHT22;11649;48.090;9.754;2023-08-17T06:41:33;20.10;99.90
22966;DHT22;11649;48.090;9.754;2023-08-17T06:44:00;20.20;99.90
22966;DHT22;11649;48.090;9.754;2023-08-17T06:46:27;20.30;99.90
22966;DHT22;11649;48.090;9.754;2023-08-17T06:48:54;20.40;99.90
22966;DHT22;11649;48.090;9.754;2023-08-17T06:51:21;20.50;99.90
22966;DHT22;11649;48.090;9.754;2023-08-17T06:53:48;20.60;99.90
22966;DHT22;11649;48.090;9.754;2023-08-17T06:56:15;20.70;99.90
22966;DHT22;11649;48.090;9.754;2023-08-17T06:58:42;20.80;99.90
22966;DHT22;11649;48.090;9.754;2023-08-17T07:01:09;20.90;99.90
22966;DHT22;11649;48.090;9.754;2023-08-17T07:03:44;21.00;99.90
22966;DHT22;11649;48.090;9.754;2023-08-17T07:06:11;21.20;99.90
22966;DHT22;11649;48.090;9.754;2023-08-17T07:08:38;21.30;99.90
22966;DHT22;11649;48.090;9.754;2023-08-17T07:11:05;21.30;99.90
22966;DHT22;11649;48.090;9.754;2023-08-17T07:13:32;21.50;99.90
22966;DHT22;11649;48.090;9.754;2023-08-17T07:15:59;21.50;99.90
22966;DHT22;11649;48.090;9.754;2023-08-17T07:18:26;21.60;99.90
22966;DHT22;11649;48.090;9.754;2023-08-17T07:20:55;21.80;99.90
22966;DHT22;11649;48.090;9.754;2023-08-17T07:23:24;21.90;99.90
22966;DHT22;11649;48.090;9.754;2023-08-17T07:25:51;21.90;99.90
22966;DHT22;11649;48.090;9.754;2023-08-17T07:28:18;22.00;99.90
22966;DHT22;11649;48.090;9.754;2023-08-17T07:30:45;22.00;99.90
22966;DHT22;11649;48.090;9.754;2023-08-17T07:33:12;22.00;99.90
22966;DHT22;11649;48.090;9.754;2023-08-17T07:35:39;22.00;99.90
22966;DHT22;11649;48.090;9.754;2023-08-17T07:38:06;22.00;99.90
22966;DHT22;11649;48.090;9.754;2023-08-17T07:40:35;22.00;99.90
22966;DHT22;11649;48.090;9.754;2023-08-17T07:43:02;22.20;99.90
22966;DHT22;11649;48.090;9.754;2023-08-17T07:45:29;22.10;99.90
22966;DHT22;11649;48.090;9.754;2023-08-17T07:47:56;22.10;99.90
22966;DHT22;11649;48.090;9.754;2023-08-17T07:50:23;22.20;99.90
22966;DHT22;11649;48.090;9.754;2023-08-17T07:52:50;22.40;99.90
22966;DHT22;11649;48.090;9.754;2023-08-17T07:55:16;22.40;99.90
22966;DHT22;11649;48.090;9.754;2023-08-17T07:57:43;22.50;99.90
22966;DHT22;11649;48.090;9.754;2023-08-17T08:00:10;22.70;99.90
22966;DHT22;11649;48.090;9.754;2023-08-17T08:02:37;22.80;99.90
22966;DHT22;11649;48.090;9.754;2023-08-17T08:05:05;22.90;99.90
22966;DHT22;11649;48.090;9.754;2023-08-17T08:07:32;23.00;99.90
22966;DHT22;11649;48.090;9.754;2023-08-17T08:09:59;22.80;99.90
22966;DHT22;11649;48.090;9.754;2023-08-17T08:12:26;22.90;99.90
22966;DHT22;11649;48.090;9.754;2023-08-17T08:14:52;23.00;99.90
22966;DHT22;11649;48.090;9.754;2023-08-17T08:17:19;23.10;99.90
22966;DHT22;11649;48.090;9.754;2023-08-17T08:19:46;23.10;99.90
22966;DHT22;11649;48.090;9.754;2023-08-17T08:22:13;23.10;99.90
22966;DHT22;11649;48.090;9.754;2023-08-17T08:24:40;23.00;99.90
22966;DHT22;11649;48.090;9.754;2023-08-17T08:27:10;23.00;99.90
22966;DHT22;11649;48.090;9.754;2023-08-17T08:29:37;23.00;99.90
22966;DHT22;11649;48.090;9.754;2023-08-17T08:32:04;23.00;99.90
22966;DHT22;11649;48.090;9.754;2023-08-17T08:34:30;23.00;99.90
22966;DHT22;11649;48.090;9.754;2023-08-17T08:36:57;23.10;99.90
22966;DHT22;11649;48.090;9.754;2023-08-17T08:39:28;23.20;99.90
22966;DHT22;11649;48.090;9.754;2023-08-17T08:41:55;23.20;99.90
22966;DHT22;11649;48.090;9.754;2023-08-17T08:44:22;23.30;99.90
22966;DHT22;11649;48.090;9.754;2023-08-17T08:46:49;23.30;99.90
22966;DHT22;11649;48.090;9.754;2023-08-17T08:49:20;23.40;99.90
22966;DHT22;11649;48.090;9.754;2023-08-17T08:51:50;23.60;99.90
22966;DHT22;11649;48.090;9.754;2023-08-17T08:54:21;23.90;99.90
22966;DHT22;11649;48.090;9.754;2023-08-17T08:57:03;24.00;99.90
22966;DHT22;11649;48.090;9.754;2023-08-17T08:59:34;24.10;99.90
22966;DHT22;11649;48.090;9.754;2023-08-17T09:02:03;24.20;99.90
22966;DHT22;11649;48.090;9.754;2023-08-17T09:04:30;24.20;99.90
22966;DHT22;11649;48.090;9.754;2023-08-17T09:06:57;24.30;99.90
22966;DHT22;11649;48.090;9.754;2023-08-17T09:09:24;24.40;99.90
22966;DHT22;11649;48.090;9.754;2023-08-17T09:11:54;24.40;99.90
22966;DHT22;11649;48.090;9.754;2023-08-17T09:14:21;24.50;99.90
22966;DHT22;11649;48.090;9.754;2023-08-17T09:16:47;24.50;99.90
22966;DHT22;11649;48.090;9.754;2023-08-17T09:19:15;24.50;99.90
22966;DHT22;11649;48.090;9.754;2023-08-17T09:21:41;24.60;99.90
22966;DHT22;11649;48.090;9.754;2023-08-17T09:24:08;24.70;99.90
22966;DHT22;11649;48.090;9.754;2023-08-17T09:26:36;24.60;99.90
22966;DHT22;11649;48.090;9.754;2023-08-17T09:29:25;24.80;99.90
22966;DHT22;11649;48.090;9.754;2023-08-17T09:31:52;25.00;99.90
22966;DHT22;11649;48.090;9.754;2023-08-17T09:34:19;25.40;99.90
22966;DHT22;11649;48.090;9.754;2023-08-17T09:36:46;25.70;99.90
22966;DHT22;11649;48.090;9.754;2023-08-17T09:39:15;26.00;99.90
22966;DHT22;11649;48.090;9.754;2023-08-17T09:41:53;26.00;99.90
22966;DHT22;11649;48.090;9.754;2023-08-17T09:44:21;26.00;99.90
22966;DHT22;11649;48.090;9.754;2023-08-17T09:46:48;25.70;99.90
22966;DHT22;11649;48.090;9.754;2023-08-17T09:49:17;25.60;99.90
22966;DHT22;11649;48.090;9.754;2023-08-17T09:51:44;25.60;99.90
22966;DHT22;11649;48.090;9.754;2023-08-17T09:54:21;25.60;99.90
22966;DHT22;11649;48.090;9.754;2023-08-17T09:56:53;25.60;99.90
22966;DHT22;11649;48.090;9.754;2023-08-17T09:59:20;25.50;99.90
22966;DHT22;11649;48.090;9.754;2023-08-17T10:01:49;25.70;99.90
22966;DHT22;11649;48.090;9.754;2023-08-17T10:04:23;25.80;99.90
22966;DHT22;11649;48.090;9.754;2023-08-17T10:07:09;25.90;99.90
22966;DHT22;11649;48.090;9.754;2023-08-17T10:09:42;25.90;99.90
22966;DHT22;11649;48.090;9.754;2023-08-17T10:12:15;26.00;99.90
22966;DHT22;11649;48.090;9.754;2023-08-17T10:14:49;25.90;99.90
22966;DHT22;11649;48.090;9.754;2023-08-17T10:17:22;25.70;99.90
22966;DHT22;11649;48.090;9.754;2023-08-17T10:19:57;25.70;99.90
22966;DHT22;11649;48.090;9.754;2023-08-17T10:22:33;25.90;99.90
22966;DHT22;11649;48.090;9.754;2023-08-17T10:25:01;26.00;99.90
22966;DHT22;11649;48.090;9.754;2023-08-17T10:27:32;26.10;99.90
22966;DHT22;11649;48.090;9.754;2023-08-17T10:30:01;26.00;99.90
22966;DHT22;11649;48.090;9.754;2023-08-17T10:32:28;26.00;99.90
22966;DHT22;11649;48.090;9.754;2023-08-17T10:34:57;26.10;99.90
22966;DHT22;11649;48.090;9.754;2023-08-17T10:37:24;26.30;97.50
22966;DHT22;11649;48.090;9.754;2023-08-17T10:39:51;26.40;97.70
22966;DHT22;11649;48.090;9.754;2023-08-17T10:42:35;26.30;99.90
22966;DHT22;11649;48.090;9.754;2023-08-17T10:45:28;26.30;99.90
22966;DHT22;11649;48.090;9.754;2023-08-17T10:50:35;26.50;99.70
22966;DHT22;11649;48.090;9.754;2023-08-17T10:53:14;26.60;99.90
22966;DHT22;11649;48.090;9.754;2023-08-17T10:55:45;26.80;98.60
22966;DHT22;11649;48.090;9.754;2023-08-17T10:58:18;26.80;98.80
22966;DHT22;11649;48.090;9.754;2023-08-17T11:00:45;26.70;97.80
22966;DHT22;11649;48.090;9.754;2023-08-17T11:03:19;26.70;97.80
22966;DHT22;11649;48.090;9.754;2023-08-17T11:05:52;26.70;98.90
22966;DHT22;11649;48.090;9.754;2023-08-17T11:08:31;26.70;99.90
22966;DHT22;11649;48.090;9.754;2023-08-17T11:13:38;26.90;99.90
22966;DHT22;11649;48.090;9.754;2023-08-17T11:16:06;27.00;99.90
22966;DHT22;11649;48.090;9.754;2023-08-17T11:18:34;27.20;99.50
22966;DHT22;11649;48.090;9.754;2023-08-17T11:21:07;27.30;99.50
22966;DHT22;11649;48.090;9.754;2023-08-17T11:23:36;27.40;98.60
22966;DHT22;11649;48.090;9.754;2023-08-17T11:26:04;27.40;98.00
22966;DHT22;11649;48.090;9.754;2023-08-17T11:28:32;27.50;97.50
22966;DHT22;11649;48.090;9.754;2023-08-17T11:31:10;27.60;99.90
22966;DHT22;11649;48.090;9.754;2023-08-17T11:33:38;27.60;99.90
22966;DHT22;11649;48.090;9.754;2023-08-17T11:36:07;27.80;99.90
22966;DHT22;11649;48.090;9.754;2023-08-17T11:38:36;27.80;95.90
22966;DHT22;11649;48.090;9.754;2023-08-17T11:41:05;27.80;96.70
22966;DHT22;11649;48.090;9.754;2023-08-17T11:43:35;27.90;96.40
22966;DHT22;11649;48.090;9.754;2023-08-17T11:46:02;28.00;97.10
22966;DHT22;11649;48.090;9.754;2023-08-17T11:48:30;28.10;97.20
22966;DHT22;11649;48.090;9.754;2023-08-17T11:51:02;28.20;97.10
22966;DHT22;11649;48.090;9.754;2023-08-17T11:53:35;28.20;96.20
22966;DHT22;11649;48.090;9.754;2023-08-17T11:56:02;28.20;96.90
22966;DHT22;11649;48.090;9.754;2023-08-17T11:58:42;28.10;98.20
22966;DHT22;11649;48.090;9.754;2023-08-17T12:01:10;28.30;94.50
22966;DHT22;11649;48.090;9.754;2023-08-17T12:03:38;28.30;96.80
22966;DHT22;11649;48.090;9.754;2023-08-17T12:06:06;28.30;95.80
22966;DHT22;11649;48.090;9.754;2023-08-17T12:08:34;28.30;94.70
22966;DHT22;11649;48.090;9.754;2023-08-17T12:11:03;28.40;93.90
22966;DHT22;11649;48.090;9.754;2023-08-17T12:13:34;28.50;93.50
22966;DHT22;11649;48.090;9.754;2023-08-17T12:16:01;28.50;94.00
22966;DHT22;11649;48.090;9.754;2023-08-17T12:18:31;28.50;93.00
22966;DHT22;11649;48.090;9.754;2023-08-17T12:20:58;28.60;90.40
22966;DHT22;11649;48.090;9.754;2023-08-17T12:23:25;28.60;90.80
22966;DHT22;11649;48.090;9.754;2023-08-17T12:25:53;28.60;88.20
22966;DHT22;11649;48.090;9.754;2023-08-17T12:28:21;28.50;88.40
22966;DHT22;11649;48.090;9.754;2023-08-17T12:31:00;28.40;90.00
22966;DHT22;11649;48.090;9.754;2023-08-17T12:33:32;28.50;91.20
22966;DHT22;11649;48.090;9.754;2023-08-17T12:35:58;28.40;91.70
22966;DHT22;11649;48.090;9.754;2023-08-17T12:38:25;28.20;91.10
22966;DHT22;11649;48.090;9.754;2023-08-17T12:40:53;28.20;90.80
22966;DHT22;11649;48.090;9.754;2023-08-17T12:43:19;28.20;93.10
22966;DHT22;11649;48.090;9.754;2023-08-17T12:45:46;28.40;92.90
22966;DHT22;11649;48.090;9.754;2023-08-17T12:48:13;28.40;93.10
22966;DHT22;11649;48.090;9.754;2023-08-17T12:50:40;28.50;94.10
22966;DHT22;11649;48.090;9.754;2023-08-17T12:53:10;28.60;92.30
22966;DHT22;11649;48.090;9.754;2023-08-17T12:55:37;28.60;89.80
22966;DHT22;11649;48.090;9.754;2023-08-17T12:58:04;28.60;91.50
22966;DHT22;11649;48.090;9.754;2023-08-17T13:00:31;28.60;90.20
22966;DHT22;11649;48.090;9.754;2023-08-17T13:02:58;28.50;86.60
22966;DHT22;11649;48.090;9.754;2023-08-17T13:05:25;28.30;87.00
22966;DHT22;11649;48.090;9.754;2023-08-17T13:07:56;28.20;90.10
22966;DHT22;11649;48.090;9.754;2023-08-17T13:10:23;28.10;91.00
22966;DHT22;11649;48.090;9.754;2023-08-17T13:12:50;28.00;91.70
22966;DHT22;11649;48.090;9.754;2023-08-17T13:15:22;27.90;92.20
22966;DHT22;11649;48.090;9.754;2023-08-17T13:17:49;27.70;92.40
22966;DHT22;11649;48.090;9.754;2023-08-17T13:20:16;27.60;91.70
22966;DHT22;11649;48.090;9.754;2023-08-17T13:22:43;27.60;90.50
22966;DHT22;11649;48.090;9.754;2023-08-17T13:25:10;27.30;92.20
22966;DHT22;11649;48.090;9.754;2023-08-17T13:27:37;27.00;93.00
22966;DHT22;11649;48.090;9.754;2023-08-17T13:30:04;26.50;91.70
22966;DHT22;11649;48.090;9.754;2023-08-17T13:32:31;26.20;84.70
22966;DHT22;11649;48.090;9.754;2023-08-17T13:34:58;26.00;76.70
22966;DHT22;11649;48.090;9.754;2023-08-17T13:37:25;25.70;74.70
22966;DHT22;11649;48.090;9.754;2023-08-17T13:39:52;25.40;79.10
22966;DHT22;11649;48.090;9.754;2023-08-17T13:42:19;24.60;92.80
22966;DHT22;11649;48.090;9.754;2023-08-17T13:44:46;23.40;99.90
22966;DHT22;11649;48.090;9.754;2023-08-17T13:47:20;22.40;99.90
22966;DHT22;11649;48.090;9.754;2023-08-17T13:49:47;21.70;99.90
22966;DHT22;11649;48.090;9.754;2023-08-17T13:52:13;20.90;99.90
22966;DHT22;11649;48.090;9.754;2023-08-17T13:54:40;20.30;99.90
22966;DHT22;11649;48.090;9.754;2023-08-17T13:57:07;20.00;99.90
22966;DHT22;11649;48.090;9.754;2023-08-17T13:59:34;19.80;99.90
22966;DHT22;11649;48.090;9.754;2023-08-17T14:02:00;19.60;99.90
22966;DHT22;11649;48.090;9.754;2023-08-17T14:04:27;19.70;99.90
22966;DHT22;11649;48.090;9.754;2023-08-17T14:06:54;19.70;99.90
22966;DHT22;11649;48.090;9.754;2023-08-17T14:09:21;19.80;99.90
22966;DHT22;11649;48.090;9.754;2023-08-17T14:11:49;19.90;99.90
22966;DHT22;11649;48.090;9.754;2023-08-17T14:14:16;19.80;99.90
22966;DHT22;11649;48.090;9.754;2023-08-17T14:16:42;19.70;99.90
22966;DHT22;11649;48.090;9.754;2023-08-17T14:19:11;19.60;99.90
22966;DHT22;11649;48.090;9.754;2023-08-17T14:25:29;19.70;99.90
22966;DHT22;11649;48.090;9.754;2023-08-17T14:28:20;20.00;99.90
22966;DHT22;11649;48.090;9.754;2023-08-17T14:30:47;20.70;99.90
22966;DHT22;11649;48.090;9.754;2023-08-17T14:33:39;21.60;99.90
22966;DHT22;11649;48.090;9.754;2023-08-17T14:36:06;22.40;99.90
22966;DHT22;11649;48.090;9.754;2023-08-17T14:38:33;23.10;99.90
22966;DHT22;11649;48.090;9.754;2023-08-17T14:41:03;23.10;99.90
22966;DHT22;11649;48.090;9.754;2023-08-17T14:43:50;23.40;99.90
22966;DHT22;11649;48.090;9.754;2023-08-17T14:46:29;24.10;99.90
22966;DHT22;11649;48.090;9.754;2023-08-17T14:48:56;25.70;99.90
22966;DHT22;11649;48.090;9.754;2023-08-17T14:51:24;26.60;99.90
22966;DHT22;11649;48.090;9.754;2023-08-17T14:53:56;27.30;99.90
22966;DHT22;11649;48.090;9.754;2023-08-17T14:56:23;28.10;99.90
22966;DHT22;11649;48.090;9.754;2023-08-17T14:58:50;28.40;99.90
22966;DHT22;11649;48.090;9.754;2023-08-17T15:01:17;28.60;99.90
22966;DHT22;11649;48.090;9.754;2023-08-17T15:03:44;27.80;97.00
22966;DHT22;11649;48.090;9.754;2023-08-17T15:06:13;26.90;99.90
22966;DHT22;11649;48.090;9.754;2023-08-17T15:08:58;26.50;99.90
22966;DHT22;11649;48.090;9.754;2023-08-17T15:11:26;26.10;99.90
22966;DHT22;11649;48.090;9.754;2023-08-17T15:13:53;25.50;99.90
22966;DHT22;11649;48.090;9.754;2023-08-17T15:16:20;25.60;99.90
22966;DHT22;11649;48.090;9.754;2023-08-17T15:18:52;25.20;99.90
22966;DHT22;11649;48.090;9.754;2023-08-17T15:21:19;24.50;99.90
22966;DHT22;11649;48.090;9.754;2023-08-17T15:23:47;24.10;99.90
22966;DHT22;11649;48.090;9.754;2023-08-17T15:26:14;24.40;99.90
22966;DHT22;11649;48.090;9.754;2023-08-17T15:28:41;24.90;99.90
22966;DHT22;11649;48.090;9.754;2023-08-17T15:31:08;25.10;99.90
22966;DHT22;11649;48.090;9.754;2023-08-17T15:33:40;26.10;99.90
22966;DHT22;11649;48.090;9.754;2023-08-17T15:36:07;27.40;99.90
22966;DHT22;11649;48.090;9.754;2023-08-17T15:38:34;28.70;94.70
22966;DHT22;11649;48.090;9.754;2023-08-17T15:41:01;29.60;90.80
22966;DHT22;11649;48.090;9.754;2023-08-17T15:43:27;30.40;84.00
22966;DHT22;11649;48.090;9.754;2023-08-17T15:45:54;30.90;82.70
22966;DHT22;11649;48.090;9.754;2023-08-17T15:48:21;31.00;77.10
22966;DHT22;11649;48.090;9.754;2023-08-17T15:50:48;31.70;76.30